Time;durP1;ratioP1;P1;durP2;ratioP2;P2;SDS_P1;SDS_P2;PMS_P1;PMS_P2;Temp;Humidity;BMP_temperature;BMP_pressure;BME280_temperature;BME280_humidity;BME280_pressure;Samples;Min_cycle;Max_cycle;Signal;HPM_P1;HPM_P2
2023/01/31 00:01:39;;;;;;;9.85;3.90;;;6.10;99.90;;;;;;5010368;28;20084;-93
2023/01/31 00:04:08;;;;;;;7.45;3.10;;;6.10;99.90;;;;;;5009307;28;20033;-92
2023/01/31 00:06:37;;;;;;;8.80;3.17;;;6.10;99.90;;;;;;4990503;28;20040;-92
2023/01/31 00:09:05;;;;;;;9.48;2.92;;;6.00;99.90;;;;;;5013511;28;20108;-94
2023/01/31 00:11:31;;;;;;;10.23;3.45;;;6.00;99.90;;;;;;5013707;28;20469;-92
2023/01/31 00:13:58;;;;;;;9.73;3.28;;;6.00;99.90;;;;;;4989049;28;20501;-92
2023/01/31 00:16:25;;;;;;;7.75;3.08;;;6.00;99.90;;;;;;5020416;28;20160;-92
2023/01/31 00:18:50;;;;;;;7.70;2.90;;;6.00;99.90;;;;;;5014102;28;20061;-92
2023/01/31 00:21:22;;;;;;;8.32;3.28;;;6.00;99.90;;;;;;4985622;28;20286;-92
2023/01/31 00:23:49;;;;;;;8.52;2.95;;;6.00;99.90;;;;;;5023883;28;20036;-92
2023/01/31 00:26:24;;;;;;;7.37;2.70;;;6.00;99.90;;;;;;5014778;28;21032;-92
2023/01/31 00:28:52;;;;;;;8.32;2.60;;;6.00;99.90;;;;;;5003668;28;20393;-92
2023/01/31 00:31:19;;;;;;;8.02;2.65;;;6.00;99.90;;;;;;4998856;28;20025;-93
2023/01/31 00:33:46;;;;;;;8.32;3.00;;;5.90;99.90;;;;;;5011059;28;20017;-92
2023/01/31 00:36:16;;;;;;;8.85;3.53;;;5.90;99.90;;;;;;5031196;28;20017;-92
2023/01/31 00:38:43;;;;;;;6.73;2.67;;;5.90;99.90;;;;;;4982734;28;20087;-92
2023/01/31 00:41:10;;;;;;;8.30;2.40;;;5.90;99.90;;;;;;5012535;28;20025;-92
2023/01/31 00:43:36;;;;;;;8.40;2.60;;;5.90;99.90;;;;;;5003385;28;20012;-92
2023/01/31 00:46:03;;;;;;;5.72;2.47;;;5.80;99.90;;;;;;5020506;28;20032;-92
2023/01/31 00:48:29;;;;;;;7.07;2.95;;;5.80;99.90;;;;;;5015089;28;20487;-91
2023/01/31 00:50:55;;;;;;;7.77;2.50;;;5.80;99.90;;;;;;5025217;28;20044;-92
2023/01/31 00:53:24;;;;;;;9.13;2.97;;;5.80;99.90;;;;;;4989567;28;20021;-92
2023/01/31 00:55:55;;;;;;;8.13;2.60;;;5.80;99.90;;;;;;5004562;28;20554;-91
2023/01/31 00:58:21;;;;;;;8.95;2.88;;;5.80;99.90;;;;;;5031442;28;20601;-93
2023/01/31 01:00:47;;;;;;;7.43;2.60;;;5.70;99.90;;;;;;5000372;28;20112;-91
2023/01/31 01:03:13;;;;;;;6.97;3.00;;;5.70;99.90;;;;;;5010519;28;20248;-92
2023/01/31 01:05:40;;;;;;;6.75;2.47;;;5.70;99.90;;;;;;5013207;28;20049;-92
2023/01/31 01:08:06;;;;;;;9.63;2.72;;;5.70;99.90;;;;;;4984429;28;20022;-93
2023/01/31 01:10:32;;;;;;;8.87;3.10;;;5.70;99.90;;;;;;5002594;28;20025;-92
2023/01/31 01:13:00;;;;;;;7.50;2.97;;;5.70;99.90;;;;;;5029692;28;20041;-92
2023/01/31 01:15:27;;;;;;;10.63;3.05;;;5.70;99.90;;;;;;5002875;28;21516;-91
2023/01/31 01:17:54;;;;;;;7.95;2.95;;;5.60;99.90;;;;;;4998706;28;20029;-92
2023/01/31 01:20:20;;;;;;;9.32;3.65;;;5.70;99.90;;;;;;5028792;28;20086;-91
2023/01/31 01:22:46;;;;;;;8.47;2.93;;;5.60;99.90;;;;;;5006427;28;22052;-92
2023/01/31 01:25:12;;;;;;;6.07;2.55;;;5.70;99.90;;;;;;4978062;28;20807;-92
2023/01/31 01:27:39;;;;;;;8.55;2.97;;;5.60;99.90;;;;;;5033190;28;20112;-92
2023/01/31 01:30:06;;;;;;;7.50;2.50;;;5.60;99.90;;;;;;5010531;28;20084;-92
2023/01/31 01:32:32;;;;;;;8.95;3.15;;;5.60;99.90;;;;;;5016529;28;20017;-92
2023/01/31 01:34:57;;;;;;;7.10;2.75;;;5.60;99.90;;;;;;5000378;28;20547;-92
2023/01/31 01:37:23;;;;;;;7.57;2.50;;;5.60;99.90;;;;;;5030848;28;20272;-92
2023/01/31 01:39:51;;;;;;;7.30;2.97;;;5.60;99.90;;;;;;5022565;28;20120;-92
2023/01/31 01:42:20;;;;;;;6.75;2.72;;;5.60;99.90;;;;;;5005329;28;20335;-91
2023/01/31 01:44:56;;;;;;;7.83;2.80;;;5.60;99.90;;;;;;5014029;28;20116;-92
2023/01/31 01:47:44;;;;;;;8.68;2.85;;;5.50;99.90;;;;;;5034339;28;20293;-91
2023/01/31 01:50:19;;;;;;;8.05;2.80;;;5.50;99.90;;;;;;5008198;28;20396;-92
2023/01/31 01:52:58;;;;;;;5.85;2.40;;;5.50;99.90;;;;;;5009115;28;20008;-92
2023/01/31 01:55:29;;;;;;;5.25;2.53;;;5.50;99.90;;;;;;4989458;28;21998;-91
2023/01/31 01:58:03;;;;;;;11.00;2.90;;;5.50;99.90;;;;;;5007904;28;20031;-92
2023/01/31 02:00:31;;;;;;;7.88;3.22;;;5.40;99.90;;;;;;4999296;28;20300;-91
2023/01/31 02:02:59;;;;;;;8.65;2.72;;;5.40;99.90;;;;;;5044657;28;20024;-92
2023/01/31 02:05:44;;;;;;;6.70;2.80;;;5.40;99.90;;;;;;5016370;28;20325;-92
2023/01/31 02:08:10;;;;;;;9.70;3.55;;;5.40;99.90;;;;;;4985220;28;20111;-92
2023/01/31 02:11:13;;;;;;;7.77;2.63;;;5.40;99.90;;;;;;5025227;28;20028;-91
2023/01/31 02:13:41;;;;;;;8.25;2.95;;;5.50;99.90;;;;;;5027683;28;20659;-91
2023/01/31 02:16:07;;;;;;;5.93;2.78;;;5.50;99.90;;;;;;4999381;28;20105;-91
2023/01/31 02:18:33;;;;;;;9.02;3.20;;;5.50;99.90;;;;;;5021390;28;20409;-91
2023/01/31 02:21:17;;;;;;;6.47;2.80;;;5.40;99.90;;;;;;5001060;28;20484;-91
2023/01/31 02:24:17;;;;;;;7.43;2.70;;;5.40;99.90;;;;;;5027645;28;20249;-93
2023/01/31 02:27:07;;;;;;;7.25;2.60;;;5.40;99.90;;;;;;4993230;28;20104;-93
2023/01/31 02:29:52;;;;;;;6.45;2.63;;;5.40;99.90;;;;;;5025922;28;20040;-92
2023/01/31 02:33:26;;;;;;;10.25;3.45;;;5.40;99.90;;;;;;5000638;28;20129;-91
2023/01/31 02:36:03;;;;;;;8.10;2.90;;;5.40;99.90;;;;;;4939664;28;20039;-92
2023/01/31 02:38:52;;;;;;;7.28;2.85;;;5.40;99.90;;;;;;5016293;28;20820;-92
2023/01/31 02:41:47;;;;;;;8.68;3.38;;;5.40;99.90;;;;;;4989428;28;20255;-92
2023/01/31 02:47:30;;;;;;;12.45;4.13;;;5.40;99.90;;;;;;5031931;28;20574;-93
2023/01/31 02:50:03;;;;;;;9.13;3.27;;;5.40;99.90;;;;;;5009940;28;20033;-91
2023/01/31 02:52:38;;;;;;;10.05;3.30;;;5.40;99.90;;;;;;4995249;28;20017;-92
2023/01/31 02:58:07;;;;;;;8.82;3.20;;;5.40;99.90;;;;;;4997669;28;20095;-92
2023/01/31 03:00:35;;;;;;;7.10;3.00;;;5.40;99.90;;;;;;5012299;28;20060;-92
2023/01/31 03:03:11;;;;;;;7.90;3.00;;;5.40;99.90;;;;;;4994969;28;20040;-92
2023/01/31 03:05:37;;;;;;;7.38;3.08;;;5.40;99.90;;;;;;5012030;28;20123;-92
2023/01/31 03:08:05;;;;;;;6.35;2.80;;;5.40;99.90;;;;;;4993713;28;20045;-92
2023/01/31 03:10:44;;;;;;;7.97;2.80;;;5.40;99.90;;;;;;5010703;28;20020;-93
2023/01/31 03:13:32;;;;;;;8.45;3.05;;;5.40;99.90;;;;;;4984737;28;20029;-92
2023/01/31 03:19:13;;;;;;;9.15;3.28;;;5.40;99.90;;;;;;5028438;28;20037;-91
2023/01/31 03:21:48;;;;;;;7.50;2.97;;;5.40;99.90;;;;;;5012596;28;20041;-92
2023/01/31 03:24:16;;;;;;;8.40;3.43;;;5.40;99.90;;;;;;5010455;28;20576;-91
2023/01/31 03:26:43;;;;;;;7.75;3.30;;;5.40;99.90;;;;;;5015411;28;20033;-92
2023/01/31 03:29:13;;;;;;;10.13;2.85;;;5.40;99.90;;;;;;4987423;28;20112;-92
2023/01/31 03:31:51;;;;;;;5.75;2.50;;;5.40;99.90;;;;;;5028188;28;20071;-92
2023/01/31 03:34:17;;;;;;;6.53;2.70;;;5.30;99.90;;;;;;5028309;28;20662;-92
2023/01/31 03:36:50;;;;;;;8.27;3.00;;;5.30;99.90;;;;;;4998620;28;20070;-92
2023/01/31 03:39:50;;;;;;;6.82;3.20;;;5.30;99.90;;;;;;5004859;28;20148;-92
2023/01/31 03:42:25;;;;;;;8.63;3.85;;;5.30;99.90;;;;;;5022734;28;20036;-92
2023/01/31 03:45:19;;;;;;;8.75;3.05;;;5.30;99.90;;;;;;4991108;28;20066;-92
2023/01/31 03:47:48;;;;;;;6.57;3.22;;;5.20;99.90;;;;;;5007817;28;20034;-91
2023/01/31 03:50:28;;;;;;;10.83;4.00;;;5.20;99.90;;;;;;4989580;28;20386;-92
2023/01/31 03:53:24;;;;;;;9.32;3.40;;;5.20;99.90;;;;;;5024338;28;20026;-92
2023/01/31 03:55:59;;;;;;;8.27;3.65;;;5.20;99.90;;;;;;5030284;28;20037;-92
2023/01/31 03:58:29;;;;;;;7.22;3.00;;;5.20;99.90;;;;;;5029408;28;20017;-91
2023/01/31 04:00:58;;;;;;;7.97;3.40;;;5.20;99.90;;;;;;5013884;28;20031;-92
2023/01/31 04:03:28;;;;;;;9.77;3.80;;;5.10;99.90;;;;;;5014104;28;20102;-92
2023/01/31 04:05:54;;;;;;;6.30;3.28;;;5.10;99.90;;;;;;5017276;28;20057;-92
2023/01/31 04:08:20;;;;;;;7.03;3.00;;;5.10;99.90;;;;;;5030199;28;20603;-92
2023/01/31 04:10:46;;;;;;;7.82;3.22;;;5.00;99.90;;;;;;5020027;28;20139;-92
2023/01/31 04:13:12;;;;;;;9.13;3.00;;;5.00;99.90;;;;;;5014566;28;20207;-92
2023/01/31 04:15:38;;;;;;;6.63;2.85;;;5.00;99.90;;;;;;5014822;28;20444;-92
2023/01/31 04:18:03;;;;;;;6.82;2.95;;;4.90;99.90;;;;;;4978906;28;20025;-91
2023/01/31 04:20:29;;;;;;;6.70;2.70;;;4.90;99.90;;;;;;4998398;28;20028;-91
2023/01/31 04:22:55;;;;;;;5.95;2.70;;;4.90;99.90;;;;;;5024332;28;20036;-92
2023/01/31 04:25:21;;;;;;;6.43;2.60;;;4.80;99.90;;;;;;5000734;28;20032;-92
2023/01/31 04:27:47;;;;;;;9.93;3.10;;;4.80;99.90;;;;;;5011621;28;20254;-92
2023/01/31 04:30:13;;;;;;;9.63;3.55;;;4.80;99.90;;;;;;5028270;28;20082;-92
2023/01/31 04:32:38;;;;;;;8.33;3.27;;;4.80;99.90;;;;;;4984143;28;20153;-92
2023/01/31 04:35:04;;;;;;;7.43;3.95;;;4.70;99.90;;;;;;5030962;28;20029;-91
2023/01/31 04:37:30;;;;;;;11.02;3.75;;;4.70;99.90;;;;;;4992944;28;20047;-91
2023/01/31 04:39:56;;;;;;;9.90;3.60;;;4.80;99.90;;;;;;5013476;28;20104;-92
2023/01/31 04:42:21;;;;;;;7.57;3.57;;;4.70;99.90;;;;;;5001541;28;20119;-92
2023/01/31 04:44:47;;;;;;;7.60;4.00;;;4.70;99.90;;;;;;5013340;28;20033;-92
2023/01/31 04:47:13;;;;;;;8.67;3.87;;;4.70;99.90;;;;;;4993668;28;20067;-92
2023/01/31 04:49:39;;;;;;;7.72;3.55;;;4.70;99.90;;;;;;5030089;28;20237;-92
2023/01/31 04:52:05;;;;;;;8.82;4.22;;;4.70;99.90;;;;;;4999394;28;20059;-92
2023/01/31 04:54:31;;;;;;;7.60;3.63;;;4.70;99.90;;;;;;5001846;28;20450;-91
2023/01/31 04:56:57;;;;;;;8.75;3.50;;;4.70;99.90;;;;;;5014759;28;20075;-91
2023/01/31 04:59:23;;;;;;;12.40;3.95;;;4.70;99.90;;;;;;5031317;28;20428;-92
2023/01/31 05:01:48;;;;;;;13.93;4.47;;;4.70;99.90;;;;;;5014306;28;20645;-93
2023/01/31 05:04:14;;;;;;;10.10;4.40;;;4.80;99.90;;;;;;4991325;28;20032;-91
2023/01/31 05:06:40;;;;;;;10.17;3.60;;;4.80;99.90;;;;;;4992529;28;20441;-91
2023/01/31 05:09:06;;;;;;;9.02;3.63;;;4.80;99.90;;;;;;5003342;28;20029;-91
2023/01/31 05:11:32;;;;;;;7.93;3.93;;;4.80;99.90;;;;;;5016106;28;20694;-92
2023/01/31 05:13:58;;;;;;;8.80;4.00;;;4.90;99.90;;;;;;5025854;28;20020;-92
2023/01/31 05:16:23;;;;;;;8.65;4.03;;;4.90;99.90;;;;;;5030894;28;20040;-92
2023/01/31 05:18:49;;;;;;;8.17;3.77;;;4.90;99.90;;;;;;5004065;28;20037;-92
2023/01/31 05:21:15;;;;;;;9.90;4.10;;;4.90;99.90;;;;;;5027964;28;20040;-92
2023/01/31 05:23:41;;;;;;;7.43;3.40;;;4.90;99.90;;;;;;4991581;28;20134;-91
2023/01/31 05:26:07;;;;;;;8.93;3.42;;;4.90;99.90;;;;;;5031115;28;20025;-91
2023/01/31 05:28:32;;;;;;;6.67;3.53;;;4.90;99.90;;;;;;5012928;28;20090;-91
2023/01/31 05:31:05;;;;;;;9.02;3.45;;;4.90;99.90;;;;;;5011541;28;20022;-92
2023/01/31 05:33:32;;;;;;;7.22;3.67;;;4.90;99.90;;;;;;4990980;28;20607;-91
2023/01/31 05:35:58;;;;;;;6.20;3.23;;;4.90;99.90;;;;;;5015770;28;20032;-91
2023/01/31 05:38:24;;;;;;;9.85;3.53;;;4.80;99.90;;;;;;5001054;28;20061;-91
2023/01/31 05:40:50;;;;;;;8.85;3.33;;;4.80;99.90;;;;;;5017885;28;20215;-91
2023/01/31 05:43:16;;;;;;;6.22;3.22;;;4.80;99.90;;;;;;5015068;28;21074;-92
2023/01/31 05:45:41;;;;;;;7.60;3.10;;;4.80;99.90;;;;;;5027032;28;20321;-91
2023/01/31 05:48:07;;;;;;;7.25;3.17;;;4.80;99.90;;;;;;5030225;28;20380;-91
2023/01/31 05:50:33;;;;;;;7.03;2.70;;;4.80;99.90;;;;;;5004718;28;20232;-92
2023/01/31 05:52:59;;;;;;;6.95;2.97;;;4.80;99.90;;;;;;5008248;28;20642;-91
2023/01/31 05:55:28;;;;;;;7.93;2.83;;;4.80;99.90;;;;;;5015853;28;20029;-92
2023/01/31 05:57:55;;;;;;;7.32;3.45;;;4.80;99.90;;;;;;4996297;28;20013;-91
2023/01/31 06:00:22;;;;;;;8.07;2.57;;;4.80;99.90;;;;;;5005552;28;20029;-91
2023/01/31 06:02:48;;;;;;;7.22;2.70;;;4.90;99.90;;;;;;5010567;28;20025;-92
2023/01/31 06:05:14;;;;;;;8.77;2.60;;;4.90;99.90;;;;;;5019014;28;20091;-91
2023/01/31 06:07:40;;;;;;;6.90;2.70;;;4.90;99.90;;;;;;4979505;28;20406;-92
2023/01/31 06:10:09;;;;;;;6.60;2.73;;;4.90;99.90;;;;;;5012275;28;20810;-91
2023/01/31 06:12:35;;;;;;;11.48;3.20;;;5.00;99.90;;;;;;5029688;28;20746;-92
2023/01/31 06:15:02;;;;;;;7.88;2.80;;;5.10;99.90;;;;;;5030080;28;20469;-91
2023/01/31 06:17:28;;;;;;;10.82;2.80;;;5.10;99.90;;;;;;5010587;28;20443;-92
2023/01/31 06:19:53;;;;;;;7.23;2.87;;;5.20;99.90;;;;;;5008042;28;20025;-90
2023/01/31 06:22:19;;;;;;;5.82;2.72;;;5.30;99.90;;;;;;4991825;28;20079;-91
2023/01/31 06:24:45;;;;;;;7.40;3.00;;;5.30;99.90;;;;;;4987936;28;22994;-91
2023/01/31 06:27:11;;;;;;;14.20;3.58;;;5.40;99.90;;;;;;5000644;28;20021;-93
2023/01/31 06:29:37;;;;;;;6.53;3.10;;;5.50;99.90;;;;;;4996498;28;20145;-91
2023/01/31 06:32:03;;;;;;;12.10;3.43;;;5.60;99.90;;;;;;5031290;28;20222;-92
2023/01/31 06:34:29;;;;;;;7.22;2.80;;;5.60;99.90;;;;;;5006583;28;20025;-90
2023/01/31 06:36:54;;;;;;;8.18;2.90;;;5.70;99.90;;;;;;4988832;28;20251;-92
2023/01/31 06:39:20;;;;;;;6.93;2.90;;;5.80;99.90;;;;;;5019139;28;20083;-92
2023/01/31 06:41:46;;;;;;;9.25;2.88;;;5.80;99.90;;;;;;4997039;28;20029;-90
2023/01/31 06:44:11;;;;;;;7.27;2.63;;;5.90;99.90;;;;;;5015405;28;20024;-92
2023/01/31 06:46:37;;;;;;;9.60;3.03;;;6.00;99.90;;;;;;5017453;28;20032;-91
2023/01/31 06:49:03;;;;;;;6.23;2.90;;;6.00;99.90;;;;;;5010993;28;20033;-92
2023/01/31 06:51:29;;;;;;;6.75;2.80;;;6.00;99.90;;;;;;5010425;28;20031;-91
2023/01/31 06:53:56;;;;;;;8.80;3.00;;;6.10;99.90;;;;;;4993494;28;20657;-91
2023/01/31 06:56:22;;;;;;;5.50;2.20;;;6.10;99.90;;;;;;5012782;28;20027;-91
2023/01/31 06:58:47;;;;;;;7.95;2.70;;;6.20;99.90;;;;;;5011826;28;20032;-91
2023/01/31 07:01:14;;;;;;;7.45;2.83;;;6.20;99.90;;;;;;5002532;28;20365;-92
2023/01/31 07:03:41;;;;;;;7.63;2.40;;;6.20;99.90;;;;;;5007750;28;20443;-92
2023/01/31 07:06:08;;;;;;;5.33;2.50;;;6.30;99.90;;;;;;5025947;28;20168;-93
2023/01/31 07:08:34;;;;;;;7.25;2.33;;;6.30;99.90;;;;;;5001531;28;20648;-92
2023/01/31 07:11:00;;;;;;;10.05;3.40;;;6.30;99.90;;;;;;5001065;28;20554;-90
2023/01/31 07:13:27;;;;;;;9.20;3.08;;;6.40;99.90;;;;;;5016897;28;20028;-90
2023/01/31 07:15:53;;;;;;;6.95;2.72;;;6.40;99.90;;;;;;5015589;28;20173;-91
2023/01/31 07:18:19;;;;;;;5.33;2.23;;;6.50;99.90;;;;;;5005718;28;20621;-92
2023/01/31 07:20:45;;;;;;;8.48;2.67;;;6.50;99.90;;;;;;5009900;28;20087;-91
2023/01/31 07:23:11;;;;;;;5.57;2.25;;;6.60;99.90;;;;;;5009058;28;20115;-89
2023/01/31 07:25:37;;;;;;;7.47;2.60;;;6.60;99.90;;;;;;4985782;28;20033;-91
2023/01/31 07:28:03;;;;;;;9.10;2.50;;;6.60;99.90;;;;;;5005305;28;20157;-92
2023/01/31 07:30:29;;;;;;;8.43;2.70;;;6.60;99.90;;;;;;5009417;28;20053;-91
2023/01/31 07:32:55;;;;;;;9.03;2.43;;;6.70;99.90;;;;;;5013448;28;20252;-90
2023/01/31 07:35:22;;;;;;;8.30;2.47;;;6.70;99.90;;;;;;5032418;28;20037;-91
2023/01/31 07:37:50;;;;;;;9.13;2.45;;;6.70;99.90;;;;;;5027592;28;20020;-91
2023/01/31 07:40:16;;;;;;;7.72;2.20;;;6.80;99.90;;;;;;4992678;28;20535;-91
2023/01/31 07:42:42;;;;;;;6.38;2.17;;;6.80;99.90;;;;;;4977145;28;20067;-89
2023/01/31 07:45:11;;;;;;;7.70;2.23;;;6.80;99.90;;;;;;5012501;28;20132;-91
2023/01/31 07:47:37;;;;;;;7.13;2.55;;;6.90;99.90;;;;;;4995617;28;20322;-90
2023/01/31 07:50:03;;;;;;;6.37;1.90;;;6.90;99.90;;;;;;5024186;28;20219;-91
2023/01/31 07:52:30;;;;;;;4.45;1.98;;;6.90;99.90;;;;;;5008619;28;20032;-91
2023/01/31 07:54:56;;;;;;;7.32;2.75;;;7.00;99.90;;;;;;4999865;28;20229;-91
2023/01/31 07:57:22;;;;;;;7.07;2.13;;;7.00;99.90;;;;;;5014457;28;20545;-91
2023/01/31 07:59:48;;;;;;;5.43;2.10;;;7.00;99.90;;;;;;4988236;28;20463;-90
2023/01/31 08:05:00;;;;;;;9.48;2.80;;;7.10;99.90;;;;;;5025924;28;20305;-91
2023/01/31 08:07:27;;;;;;;9.00;3.13;;;7.10;99.90;;;;;;5012246;28;20159;-90
2023/01/31 08:09:53;;;;;;;8.23;2.47;;;7.10;99.90;;;;;;5006597;28;20398;-88
2023/01/31 08:12:19;;;;;;;7.53;2.33;;;7.10;99.90;;;;;;4993146;28;20832;-89
2023/01/31 08:14:45;;;;;;;5.73;2.67;;;7.10;99.90;;;;;;4987307;28;20100;-90
2023/01/31 08:17:11;;;;;;;11.77;2.72;;;7.10;99.90;;;;;;5011454;28;20488;-91
2023/01/31 08:19:37;;;;;;;5.47;2.50;;;7.10;99.90;;;;;;5007930;28;20021;-90
2023/01/31 08:22:03;;;;;;;7.25;2.20;;;7.20;99.90;;;;;;5012353;28;20056;-91
2023/01/31 08:24:31;;;;;;;4.90;2.20;;;7.20;99.90;;;;;;5006254;28;20024;-91
2023/01/31 08:26:57;;;;;;;6.15;2.67;;;7.30;99.90;;;;;;5004286;28;20280;-92
2023/01/31 08:29:23;;;;;;;6.05;2.50;;;7.30;99.90;;;;;;5003213;28;20020;-92
2023/01/31 08:31:50;;;;;;;10.10;2.35;;;7.30;99.90;;;;;;5012775;28;20098;-92
2023/01/31 08:34:16;;;;;;;7.25;2.70;;;7.40;99.90;;;;;;4996224;28;20025;-92
2023/01/31 08:36:43;;;;;;;8.43;2.60;;;7.40;99.90;;;;;;5011430;28;20111;-91
2023/01/31 08:39:08;;;;;;;6.70;2.58;;;7.40;99.90;;;;;;5005968;28;20025;-90
2023/01/31 08:41:35;;;;;;;6.88;2.22;;;7.50;99.90;;;;;;5027984;28;20082;-90
2023/01/31 08:44:03;;;;;;;7.90;2.92;;;7.50;99.90;;;;;;4984893;28;20355;-91
2023/01/31 08:46:34;;;;;;;5.97;2.30;;;7.60;99.90;;;;;;5001218;28;20048;-92
2023/01/31 08:49:01;;;;;;;8.02;2.42;;;7.60;99.90;;;;;;5022230;28;20322;-91
2023/01/31 08:51:27;;;;;;;6.40;2.10;;;7.60;99.90;;;;;;5014543;28;20082;-91
2023/01/31 08:53:53;;;;;;;7.43;2.40;;;7.60;99.90;;;;;;5011834;28;20213;-89
2023/01/31 08:56:20;;;;;;;8.97;2.40;;;7.60;99.90;;;;;;5019565;28;20291;-92
2023/01/31 08:58:46;;;;;;;8.73;3.10;;;7.70;99.90;;;;;;5008723;28;20134;-92
2023/01/31 09:01:14;;;;;;;8.43;2.58;;;7.70;99.90;;;;;;5018492;28;20036;-90
2023/01/31 09:03:41;;;;;;;7.40;2.72;;;7.80;99.90;;;;;;5028291;28;20377;-90
2023/01/31 09:06:12;;;;;;;5.63;2.45;;;7.80;99.90;;;;;;5015365;28;20946;-91
2023/01/31 09:08:38;;;;;;;5.97;2.33;;;7.80;99.90;;;;;;5010943;28;20308;-92
2023/01/31 09:11:04;;;;;;;5.43;2.35;;;7.90;99.90;;;;;;5013897;28;20255;-92
2023/01/31 09:13:30;;;;;;;7.63;2.50;;;7.90;99.90;;;;;;5005637;28;20937;-91
2023/01/31 09:16:07;;;;;;;9.13;2.30;;;8.00;99.90;;;;;;4977744;28;20048;-91
2023/01/31 09:18:34;;;;;;;7.22;2.40;;;8.10;99.90;;;;;;5023155;28;20027;-92
2023/01/31 09:21:07;;;;;;;6.43;2.55;;;8.10;99.90;;;;;;4995346;28;20710;-90
2023/01/31 09:23:33;;;;;;;7.40;2.13;;;8.20;99.90;;;;;;5007282;28;20035;-90
2023/01/31 09:25:59;;;;;;;7.28;2.80;;;8.20;99.90;;;;;;5027122;28;20029;-91
2023/01/31 09:28:25;;;;;;;6.33;2.30;;;8.30;99.90;;;;;;5032744;28;20032;-92
2023/01/31 09:30:52;;;;;;;6.60;2.20;;;8.30;99.90;;;;;;4994316;28;20211;-91
2023/01/31 09:33:19;;;;;;;7.25;2.58;;;8.40;99.90;;;;;;5014685;28;20017;-91
2023/01/31 09:35:56;;;;;;;5.50;2.30;;;8.40;99.90;;;;;;5003509;28;20057;-91
2023/01/31 09:38:22;;;;;;;7.03;2.42;;;8.40;99.90;;;;;;5015525;28;20032;-90
2023/01/31 09:40:48;;;;;;;6.30;2.30;;;8.40;99.90;;;;;;5011260;28;20051;-91
2023/01/31 09:43:16;;;;;;;6.20;2.50;;;8.40;99.90;;;;;;5014142;28;20121;-89
2023/01/31 09:45:44;;;;;;;6.60;2.20;;;8.40;99.90;;;;;;4972333;28;20029;-91
2023/01/31 09:48:18;;;;;;;7.72;2.97;;;8.50;99.90;;;;;;5024893;28;20467;-91
2023/01/31 09:50:54;;;;;;;8.27;2.70;;;8.40;99.90;;;;;;5015799;28;20437;-92
2023/01/31 09:53:23;;;;;;;5.23;2.10;;;8.50;99.90;;;;;;5007735;28;21433;-91
2023/01/31 09:56:01;;;;;;;9.00;2.65;;;8.50;99.90;;;;;;5035101;28;20091;-91
2023/01/31 09:58:56;;;;;;;6.60;2.50;;;8.50;99.90;;;;;;5010016;28;20437;-92
2023/01/31 10:01:49;;;;;;;6.05;2.70;;;8.60;99.90;;;;;;4973464;28;20450;-92
2023/01/31 10:04:42;;;;;;;7.63;2.70;;;8.60;99.90;;;;;;4991423;28;20537;-91
2023/01/31 10:08:00;;;;;;;9.00;3.40;;;8.70;99.90;;;;;;5018153;28;20493;-92
2023/01/31 10:10:40;;;;;;;10.65;3.17;;;8.80;99.90;;;;;;5038355;28;20241;-90
2023/01/31 10:13:16;;;;;;;5.88;2.80;;;9.00;99.90;;;;;;5022209;28;20123;-91
2023/01/31 10:15:46;;;;;;;7.10;2.47;;;9.10;99.90;;;;;;5025763;28;20021;-91
2023/01/31 10:18:50;;;;;;;7.53;2.50;;;9.10;99.90;;;;;;4983961;28;20127;-88
2023/01/31 10:21:20;;;;;;;5.93;2.63;;;9.20;99.90;;;;;;5031822;28;20131;-92
2023/01/31 10:23:54;;;;;;;10.43;2.90;;;9.30;99.90;;;;;;4997651;28;20033;-90
2023/01/31 10:26:25;;;;;;;6.20;2.80;;;9.40;99.90;;;;;;5013160;28;20196;-90
2023/01/31 10:29:27;;;;;;;7.47;2.80;;;9.50;99.90;;;;;;5010785;28;20025;-89
2023/01/31 10:32:07;;;;;;;8.35;2.80;;;9.70;99.90;;;;;;5020634;28;20068;-92
2023/01/31 10:34:41;;;;;;;8.50;3.73;;;10.10;99.90;;;;;;5010948;28;20084;-89
2023/01/31 10:37:24;;;;;;;7.38;2.50;;;10.50;99.90;;;;;;5019422;28;20032;-92
2023/01/31 10:40:02;;;;;;;7.38;2.83;;;10.80;99.90;;;;;;5023242;28;20056;-91
2023/01/31 10:42:36;;;;;;;7.40;2.40;;;11.00;99.90;;;;;;5026480;28;20509;-91
2023/01/31 10:45:16;;;;;;;8.23;2.78;;;11.10;99.90;;;;;;5013720;28;20473;-92
2023/01/31 10:48:00;;;;;;;7.83;2.40;;;11.20;99.90;;;;;;5029976;28;20037;-90
2023/01/31 10:51:05;;;;;;;8.02;2.38;;;11.20;99.90;;;;;;5012583;28;20318;-91
2023/01/31 10:53:42;;;;;;;7.20;2.70;;;11.20;99.90;;;;;;4992125;28;20043;-91
2023/01/31 10:56:29;;;;;;;4.10;2.30;;;11.40;99.90;;;;;;5026983;28;20037;-91
2023/01/31 10:58:57;;;;;;;5.30;2.65;;;11.50;99.90;;;;;;5023108;28;20022;-91
2023/01/31 11:01:23;;;;;;;5.93;2.90;;;11.80;99.90;;;;;;5029573;28;20317;-90
2023/01/31 11:03:51;;;;;;;6.20;2.45;;;12.00;99.90;;;;;;4997969;28;21344;-88
2023/01/31 11:06:19;;;;;;;7.93;2.50;;;12.10;99.90;;;;;;5012953;28;20257;-92
2023/01/31 11:09:00;;;;;;;5.47;2.53;;;12.10;99.90;;;;;;5011138;28;20532;-92
2023/01/31 11:11:27;;;;;;;7.43;2.30;;;12.20;99.90;;;;;;5012507;28;20033;-90
2023/01/31 11:14:15;;;;;;;6.97;2.55;;;12.20;99.90;;;;;;5028912;28;20032;-91
2023/01/31 11:16:40;;;;;;;7.03;2.70;;;12.10;99.90;;;;;;5015666;28;20037;-93
2023/01/31 11:19:46;;;;;;;7.20;2.57;;;12.10;99.90;;;;;;4993756;28;20047;-90
2023/01/31 11:22:34;;;;;;;6.00;2.30;;;12.20;99.90;;;;;;5016390;28;20340;-91
2023/01/31 11:25:03;;;;;;;6.38;2.30;;;12.20;99.90;;;;;;5028862;28;20099;-90
2023/01/31 11:28:02;;;;;;;7.13;2.38;;;12.20;99.90;;;;;;5026118;28;20473;-90
2023/01/31 11:30:34;;;;;;;5.25;2.10;;;12.20;99.90;;;;;;5012036;28;20207;-91
2023/01/31 11:33:01;;;;;;;4.85;2.20;;;12.10;99.90;;;;;;5023798;28;20074;-87
2023/01/31 11:35:32;;;;;;;5.37;2.00;;;12.10;99.90;;;;;;4989428;28;20087;-90
2023/01/31 11:38:08;;;;;;;5.90;2.22;;;12.10;99.90;;;;;;5004489;28;20052;-92
2023/01/31 11:40:36;;;;;;;4.22;1.90;;;12.00;99.90;;;;;;4994790;28;20027;-91
2023/01/31 11:43:24;;;;;;;4.25;1.90;;;11.90;99.90;;;;;;5024131;28;20116;-91
2023/01/31 11:45:57;;;;;;;6.97;2.13;;;11.80;99.90;;;;;;5011536;28;20041;-91
2023/01/31 11:48:27;;;;;;;5.00;2.17;;;11.70;99.90;;;;;;5011280;28;20108;-92
2023/01/31 11:50:56;;;;;;;5.22;2.40;;;11.60;99.90;;;;;;4987466;28;20021;-90
2023/01/31 11:53:49;;;;;;;7.97;2.80;;;11.60;99.90;;;;;;5025943;28;20029;-91
2023/01/31 11:56:24;;;;;;;4.45;2.13;;;11.50;99.90;;;;;;5003904;28;20028;-89
2023/01/31 11:58:57;;;;;;;5.70;2.60;;;11.40;99.90;;;;;;5014432;28;20037;-91
2023/01/31 12:01:25;;;;;;;5.03;2.07;;;11.40;99.90;;;;;;5027938;28;20358;-91
2023/01/31 12:04:03;;;;;;;7.38;2.60;;;11.30;99.90;;;;;;5006878;28;20337;-90
2023/01/31 12:06:33;;;;;;;7.15;2.40;;;11.30;99.90;;;;;;4986833;28;20576;-93
2023/01/31 12:09:00;;;;;;;6.57;2.20;;;11.20;99.90;;;;;;5013082;28;20052;-92
2023/01/31 12:11:34;;;;;;;7.57;2.33;;;11.20;99.90;;;;;;4997784;28;20075;-90
2023/01/31 12:14:13;;;;;;;6.40;2.23;;;11.10;99.90;;;;;;4995230;28;20025;-91
2023/01/31 12:16:40;;;;;;;9.02;2.50;;;11.10;99.90;;;;;;5012772;28;20368;-90
2023/01/31 12:19:20;;;;;;;5.97;2.10;;;11.00;99.90;;;;;;5031176;28;20372;-92
2023/01/31 12:21:54;;;;;;;5.07;1.95;;;11.00;99.90;;;;;;5004645;28;20158;-90
2023/01/31 12:25:15;;;;;;;6.65;2.50;;;10.90;99.90;;;;;;5008990;28;20037;-89
2023/01/31 12:28:01;;;;;;;7.63;2.30;;;10.90;99.90;;;;;;4985275;28;20028;-91
2023/01/31 12:30:50;;;;;;;7.35;2.40;;;10.80;99.90;;;;;;5017018;28;20091;-91
2023/01/31 12:33:49;;;;;;;5.35;1.90;;;10.80;99.90;;;;;;5036829;28;20057;-88
2023/01/31 12:36:42;;;;;;;7.80;2.80;;;10.80;99.90;;;;;;5036290;28;20083;-91
2023/01/31 12:39:14;;;;;;;6.95;2.60;;;10.80;99.90;;;;;;4992806;28;20025;-89
2023/01/31 12:41:56;;;;;;;6.47;2.40;;;10.70;99.90;;;;;;4996396;28;20148;-91
2023/01/31 12:44:48;;;;;;;5.53;2.47;;;10.70;99.90;;;;;;5029967;28;20460;-92
2023/01/31 12:47:36;;;;;;;4.60;2.00;;;10.70;99.90;;;;;;5002704;28;20037;-92
2023/01/31 12:50:45;;;;;;;5.22;1.85;;;10.80;99.90;;;;;;5037405;28;20071;-91
2023/01/31 12:53:19;;;;;;;3.97;1.92;;;10.80;99.90;;;;;;5013146;28;20025;-93
2023/01/31 12:55:58;;;;;;;4.30;1.90;;;10.80;99.90;;;;;;5000429;28;20253;-92
2023/01/31 12:59:02;;;;;;;5.10;2.10;;;10.90;99.90;;;;;;5001256;28;20044;-93
2023/01/31 13:01:41;;;;;;;7.13;2.30;;;10.90;99.90;;;;;;5017789;28;20032;-91
2023/01/31 13:04:39;;;;;;;4.65;2.20;;;10.80;99.90;;;;;;5032184;28;20066;-92
2023/01/31 13:07:31;;;;;;;5.10;1.90;;;10.80;99.90;;;;;;5033924;28;20044;-93
2023/01/31 13:10:02;;;;;;;5.27;1.93;;;10.80;99.90;;;;;;5009905;28;20052;-93
2023/01/31 13:12:31;;;;;;;8.63;2.13;;;10.80;99.90;;;;;;5005197;28;20029;-90
2023/01/31 13:15:27;;;;;;;5.15;1.95;;;10.70;99.90;;;;;;5016245;28;20056;-92
2023/01/31 13:17:59;;;;;;;5.03;2.10;;;10.70;99.90;;;;;;4997562;28;20116;-92
2023/01/31 13:20:33;;;;;;;4.70;1.95;;;10.60;99.90;;;;;;5011873;28;20132;-92
2023/01/31 13:23:05;;;;;;;5.10;2.40;;;10.60;99.90;;;;;;5019325;28;20021;-91
2023/01/31 13:25:52;;;;;;;4.63;1.73;;;10.60;99.90;;;;;;5008635;28;20082;-92
2023/01/31 13:28:23;;;;;;;7.55;2.00;;;10.50;99.90;;;;;;5016775;28;20120;-91
2023/01/31 13:30:57;;;;;;;6.72;2.00;;;10.50;99.90;;;;;;5030763;28;20039;-90
2023/01/31 13:33:27;;;;;;;7.97;2.30;;;10.40;99.90;;;;;;4999293;28;20095;-91